Time;durP1;ratioP1;P1;durP2;ratioP2;P2;SDS_P1;SDS_P2;PMS_P1;PMS_P2;Temp;Humidity;BMP_temperature;BMP_pressure;BME280_temperature;BME280_humidity;BME280_pressure;Samples;Min_cycle;Max_cycle;Signal;HPM_P1;HPM_P2
2021/08/13 00:02:11;;;;;;;15.70;10.80;;;;;;;15.91;74.19;101367.36;1688141;83;26332;-78
2021/08/13 00:04:39;;;;;;;16.60;10.50;;;;;;;15.90;74.36;101363.01;1677332;83;26561;-78
2021/08/13 00:07:06;;;;;;;16.30;9.98;;;;;;;15.87;74.64;101363.91;1636517;84;25851;-78
2021/08/13 00:09:33;;;;;;;13.70;10.20;;;;;;;15.86;74.60;101369.02;1682512;83;27543;-78
2021/08/13 00:12:00;;;;;;;17.02;10.38;;;;;;;15.82;74.45;101372.65;1696131;83;26224;-78
2021/08/13 00:14:27;;;;;;;12.98;9.78;;;;;;;15.77;74.46;101373.76;1666326;83;25890;-78
2021/08/13 00:16:54;;;;;;;13.13;9.43;;;;;;;15.73;74.49;101372.50;1637038;84;26515;-78
2021/08/13 00:19:21;;;;;;;13.30;10.08;;;;;;;15.72;74.58;101378.92;1669450;84;26754;-78
2021/08/13 00:21:49;;;;;;;14.13;10.15;;;;;;;15.71;74.62;101378.63;1693819;84;28215;-78
2021/08/13 00:24:17;;;;;;;17.12;10.60;;;;;;;15.69;74.64;101374.45;1671795;84;25774;-79
2021/08/13 00:26:44;;;;;;;11.90;10.43;;;;;;;15.68;74.83;101380.36;1628880;84;25928;-78
2021/08/13 00:29:11;;;;;;;15.35;10.03;;;;;;;15.69;74.86;101382.05;1656037;83;26441;-79
2021/08/13 00:31:38;;;;;;;14.47;9.98;;;;;;;15.68;74.84;101380.88;1685586;84;26085;-79
2021/08/13 00:34:06;;;;;;;14.23;10.90;;;;;;;15.66;74.92;101383.78;1663151;84;27431;-79
2021/08/13 00:36:33;;;;;;;18.45;10.78;;;;;;;15.62;74.93;101386.57;1643069;84;25983;-78
2021/08/13 00:39:02;;;;;;;18.73;10.32;;;;;;;15.59;75.13;101380.20;1682778;83;25807;-78
2021/08/13 00:41:31;;;;;;;15.78;10.38;;;;;;;15.56;75.11;101379.78;1636701;84;26599;-78
2021/08/13 00:43:58;;;;;;;15.05;10.53;;;;;;;15.53;75.00;101378.31;1672302;83;25810;-78
2021/08/13 00:46:25;;;;;;;13.93;9.75;;;;;;;15.50;75.16;101371.14;1667040;84;27551;-78
2021/08/13 00:48:54;;;;;;;12.65;9.63;;;;;;;15.49;75.23;101372.16;1637265;85;25869;-79
2021/08/13 00:51:29;;;;;;;15.28;10.20;;;;;;;15.48;75.28;101370.00;1701207;83;25831;-78
2021/08/13 00:53:58;;;;;;;15.13;10.85;;;;;;;15.47;75.39;101370.17;1643500;84;26634;-79
2021/08/13 00:56:27;;;;;;;12.30;9.38;;;;;;;15.43;75.41;101373.80;1633814;84;26521;-79
2021/08/13 00:59:05;;;;;;;13.53;10.35;;;;;;;15.40;75.32;101368.76;1673074;83;28348;-79
2021/08/13 01:01:34;;;;;;;15.85;10.13;;;;;;;15.37;75.41;101367.31;1702730;83;26040;-78
2021/08/13 01:04:03;;;;;;;12.20;9.88;;;;;;;15.33;75.40;101368.72;1691914;83;25943;-79
2021/08/13 01:06:30;;;;;;;11.95;9.40;;;;;;;15.30;75.43;101366.44;1660822;83;25943;-78
2021/08/13 01:08:58;;;;;;;17.30;9.95;;;;;;;15.31;75.59;101374.03;1691903;83;25960;-78
2021/08/13 01:11:39;;;;;;;14.70;9.60;;;;;;;15.30;75.64;101358.34;1663947;83;27627;-79
2021/08/13 01:14:21;;;;;;;10.50;8.78;;;;;;;15.32;75.75;101358.97;1666000;84;26126;-78
2021/08/13 01:16:53;;;;;;;13.38;9.35;;;;;;;15.32;75.89;101361.67;1707243;82;25800;-79
2021/08/13 01:19:48;;;;;;;13.72;9.55;;;;;;;15.32;76.14;101356.78;1718011;81;25930;-78
2021/08/13 01:22:30;;;;;;;16.25;9.68;;;;;;;15.31;76.14;101350.54;1731306;82;25861;-78
2021/08/13 01:25:01;;;;;;;13.28;9.30;;;;;;;15.32;76.23;101354.08;1717365;82;28307;-78
2021/08/13 01:27:36;;;;;;;14.03;9.05;;;;;;;15.31;76.20;101352.43;1735059;81;25298;-79
2021/08/13 01:30:10;;;;;;;11.55;9.75;;;;;;;15.30;76.17;101355.64;1682734;81;25961;-78
2021/08/13 01:33:06;;;;;;;11.68;9.00;;;;;;;15.30;76.25;101358.84;1735871;81;25957;-78
2021/08/13 01:35:39;;;;;;;10.53;8.08;;;;;;;15.27;76.20;101353.33;1727203;81;26594;-77
2021/08/13 01:38:13;;;;;;;10.23;8.63;;;;;;;15.26;76.13;101358.93;1741304;81;28225;-77
2021/08/13 01:40:46;;;;;;;13.78;8.93;;;;;;;15.26;76.17;101353.02;1733710;81;25762;-78
2021/08/13 01:43:19;;;;;;;11.95;8.55;;;;;;;15.25;76.08;101360.78;1687440;81;25562;-78
2021/08/13 01:45:47;;;;;;;11.88;8.25;;;;;;;15.24;76.11;101361.84;1699222;81;25881;-78
2021/08/13 01:48:16;;;;;;;13.45;8.50;;;;;;;15.25;76.23;101364.00;1753966;81;26521;-79
2021/08/13 01:50:45;;;;;;;11.78;9.00;;;;;;;15.27;76.26;101362.77;1701393;81;28071;-78
2021/08/13 01:53:15;;;;;;;11.25;8.40;;;;;;;15.28;76.36;101363.61;1729506;81;26621;-79
2021/08/13 01:55:45;;;;;;;10.82;8.23;;;;;;;15.30;76.36;101358.84;1742617;81;25834;-78
2021/08/13 01:58:13;;;;;;;12.50;8.45;;;;;;;15.30;76.42;101361.55;1742085;81;26230;-79
2021/08/13 02:00:42;;;;;;;12.78;8.68;;;;;;;15.31;76.60;101362.69;1752035;81;25826;-78
2021/08/13 02:03:11;;;;;;;12.00;9.30;;;;;;;15.34;76.78;101361.46;1720800;81;27523;-79
2021/08/13 02:05:41;;;;;;;11.68;8.83;;;;;;;15.35;76.84;101367.19;1726634;81;25881;-78
2021/08/13 02:08:09;;;;;;;11.70;8.90;;;;;;;15.36;76.87;101372.89;1746725;81;26174;-80
2021/08/13 02:10:43;;;;;;;10.00;8.10;;;;;;;15.38;76.89;101374.36;1725315;81;26670;-78
2021/08/13 02:13:12;;;;;;;10.48;8.25;;;;;;;15.36;76.84;101369.69;1714787;81;25820;-79
2021/08/13 02:15:43;;;;;;;13.32;8.55;;;;;;;15.28;76.14;101363.11;1699656;81;27611;-78
2021/08/13 02:18:18;;;;;;;12.90;8.35;;;;;;;15.21;76.00;101369.48;1742229;80;25934;-79
2021/08/13 02:20:48;;;;;;;14.90;8.75;;;;;;;15.11;75.79;101364.95;1745449;81;25846;-78
2021/08/13 02:23:19;;;;;;;11.83;8.33;;;;;;;15.00;75.78;101363.64;1752282;80;26789;-78
2021/08/13 02:25:47;;;;;;;12.35;7.85;;;;;;;14.92;75.74;101366.50;1729423;81;26069;-78
2021/08/13 02:28:15;;;;;;;11.57;8.70;;;;;;;14.86;75.89;101369.14;1729949;81;27333;-78
2021/08/13 02:30:42;;;;;;;11.93;7.58;;;;;;;14.80;75.94;101371.28;1721500;81;25801;-78
2021/08/13 02:33:09;;;;;;;11.80;7.80;;;;;;;14.72;75.88;101367.34;1726168;81;25616;-78
2021/08/13 02:35:37;;;;;;;14.25;9.35;;;;;;;14.65;75.97;101369.98;1696324;81;26082;-78
2021/08/13 02:38:18;;;;;;;13.72;7.75;;;;;;;14.60;76.02;101369.76;1749371;81;25723;-78
2021/08/13 02:40:51;;;;;;;13.62;8.93;;;;;;;14.54;76.10;101371.34;1715803;82;27330;-78
2021/08/13 02:43:26;;;;;;;12.35;8.15;;;;;;;14.46;76.04;101370.14;1727203;81;25828;-78
2021/08/13 02:45:59;;;;;;;12.00;8.00;;;;;;;14.41;76.20;101382.00;1731431;81;25997;-78
2021/08/13 02:48:28;;;;;;;11.68;7.67;;;;;;;14.37;76.28;101381.27;1744978;81;25902;-78
2021/08/13 02:50:59;;;;;;;10.72;7.72;;;;;;;14.33;76.33;101383.48;1744162;81;25620;-78
2021/08/13 02:53:27;;;;;;;10.43;7.80;;;;;;;14.30;76.38;101384.39;1729344;81;28286;-78
2021/08/13 02:56:05;;;;;;;12.30;8.55;;;;;;;14.26;76.56;101381.23;1717624;81;25835;-79
2021/08/13 02:58:37;;;;;;;10.15;7.28;;;;;;;14.21;76.65;101378.26;1747600;81;25803;-78
2021/08/13 03:01:05;;;;;;;12.95;8.33;;;;;;;14.17;76.65;101381.02;1725195;81;26221;-78
2021/08/13 03:03:34;;;;;;;11.30;7.90;;;;;;;14.14;76.80;101381.39;1707458;81;25862;-78
2021/08/13 03:06:03;;;;;;;10.65;7.92;;;;;;;14.10;76.73;101381.95;1705783;81;27445;-78
2021/08/13 03:08:31;;;;;;;14.18;8.60;;;;;;;14.08;76.99;101386.20;1750110;81;25753;-78
2021/08/13 03:11:01;;;;;;;10.65;8.38;;;;;;;14.07;77.04;101383.16;1719653;81;25866;-78
2021/08/13 03:13:29;;;;;;;9.33;7.62;;;;;;;14.06;77.06;101384.72;1743928;81;25770;-78
2021/08/13 03:15:58;;;;;;;11.30;8.08;;;;;;;14.02;77.03;101384.77;1703399;81;25976;-78
2021/08/13 03:18:28;;;;;;;12.40;7.65;;;;;;;13.97;77.03;101383.15;1747848;81;28338;-78
2021/08/13 03:20:57;;;;;;;9.63;7.60;;;;;;;13.94;77.33;101381.70;1742252;81;25996;-79
2021/08/13 03:23:24;;;;;;;11.40;8.00;;;;;;;13.92;77.33;101381.86;1717486;81;25733;-78
2021/08/13 03:25:52;;;;;;;11.85;8.20;;;;;;;13.92;77.32;101379.17;1679041;81;25887;-78
2021/08/13 03:28:21;;;;;;;10.08;7.62;;;;;;;13.91;77.44;101382.06;1716304;81;26398;-78
2021/08/13 03:30:49;;;;;;;11.25;8.05;;;;;;;13.89;77.44;101380.91;1680050;81;27515;-80
2021/08/13 03:33:18;;;;;;;16.25;8.93;;;;;;;13.87;77.53;101378.92;1707446;81;25898;-78
2021/08/13 03:35:47;;;;;;;10.43;8.00;;;;;;;13.87;77.66;101384.81;1736123;81;25904;-79
2021/08/13 03:38:14;;;;;;;12.95;8.95;;;;;;;13.85;77.94;101378.78;1738335;81;25971;-78
2021/08/13 03:40:42;;;;;;;14.93;8.05;;;;;;;13.84;77.90;101373.91;1711277;83;26621;-78
2021/08/13 03:43:09;;;;;;;10.85;8.73;;;;;;;13.85;77.86;101378.28;1687948;82;28268;-78
2021/08/13 03:45:37;;;;;;;14.23;9.30;;;;;;;13.83;78.07;101378.98;1671271;83;26622;-77
2021/08/13 03:48:05;;;;;;;9.95;8.20;;;;;;;13.83;78.07;101378.98;1681719;83;25653;-78
2021/08/13 03:50:32;;;;;;;13.53;9.18;;;;;;;13.82;78.20;101380.50;1706729;82;25775;-78
2021/08/13 03:53:00;;;;;;;11.48;8.10;;;;;;;13.83;78.32;101378.98;1713167;81;26302;-78
2021/08/13 03:55:27;;;;;;;12.55;8.40;;;;;;;13.82;78.22;101377.30;1683865;81;27458;-79
2021/08/13 03:57:55;;;;;;;11.90;8.28;;;;;;;13.82;78.22;101380.50;1658294;81;26263;-78
2021/08/13 04:00:22;;;;;;;13.15;8.88;;;;;;;13.81;78.36;101381.00;1735902;81;25921;-77
2021/08/13 04:02:51;;;;;;;14.05;8.20;;;;;;;13.81;78.47;101374.80;1733046;81;26515;-77
2021/08/13 04:05:22;;;;;;;13.93;9.00;;;;;;;13.83;78.54;101383.53;1711101;81;25348;-78
2021/08/13 04:07:51;;;;;;;9.50;8.05;;;;;;;13.85;78.70;101382.83;1671034;81;28102;-78
2021/08/13 04:10:18;;;;;;;10.00;8.78;;;;;;;13.87;78.88;101385.66;1751118;81;26172;-77
2021/08/13 04:12:45;;;;;;;10.48;8.05;;;;;;;13.89;79.03;101380.91;1746185;81;25879;-78
2021/08/13 04:15:20;;;;;;;12.68;8.98;;;;;;;13.90;79.00;101386.61;1712212;81;26714;-78
2021/08/13 04:17:49;;;;;;;13.08;8.58;;;;;;;13.93;79.18;101386.75;1739543;81;25969;-78
2021/08/13 04:20:17;;;;;;;10.48;8.70;;;;;;;13.95;79.21;101386.05;1746305;81;28119;-78
2021/08/13 04:22:46;;;;;;;9.93;8.18;;;;;;;13.98;79.25;101382.98;1741641;81;25805;-78
2021/08/13 04:25:14;;;;;;;11.33;8.95;;;;;;;14.00;79.43;101384.97;1716545;81;27051;-78
2021/08/13 04:27:42;;;;;;;12.75;9.28;;;;;;;14.04;79.60;101390.30;1672509;81;25860;-78
2021/08/13 04:30:10;;;;;;;14.87;9.63;;;;;;;14.09;79.93;101393.27;1736880;81;26422;-78
2021/08/13 04:32:39;;;;;;;13.28;9.05;;;;;;;14.13;80.21;101393.20;1718256;81;27495;-78
2021/08/13 04:35:09;;;;;;;11.93;8.03;;;;;;;14.18;80.27;101397.48;1714873;81;25962;-78
2021/08/13 04:37:36;;;;;;;14.50;7.75;;;;;;;14.24;80.26;101398.61;1674029;81;25915;-78
2021/08/13 04:40:06;;;;;;;15.20;7.95;;;;;;;14.29;80.45;101397.53;1733670;80;26406;-78
2021/08/13 04:42:35;;;;;;;10.03;7.60;;;;;;;14.35;80.40;101396.80;1740889;81;25938;-78
2021/08/13 04:45:03;;;;;;;14.78;7.78;;;;;;;14.41;80.52;101398.17;1689715;81;27543;-78
2021/08/13 04:47:30;;;;;;;10.08;7.72;;;;;;;14.49;80.62;101402.12;1685501;81;25897;-78
2021/08/13 04:49:57;;;;;;;9.85;7.28;;;;;;;14.56;80.78;101401.64;1710097;81;25989;-78
2021/08/13 04:52:24;;;;;;;9.90;6.95;;;;;;;14.64;81.13;101402.88;1744763;81;26616;-78
2021/08/13 04:54:52;;;;;;;9.18;7.60;;;;;;;14.72;81.15;101395.66;1692328;81;26524;-78
2021/08/13 04:57:19;;;;;;;11.93;7.92;;;;;;;14.81;81.20;101402.59;1676806;81;27357;-78
2021/08/13 04:59:46;;;;;;;9.95;7.47;;;;;;;14.89;81.48;101399.24;1736746;81;25812;-78
2021/08/13 05:02:21;;;;;;;10.90;8.03;;;;;;;14.99;81.70;101400.27;1745194;81;25912;-78
2021/08/13 05:04:48;;;;;;;9.20;7.53;;;;;;;15.09;81.93;101405.64;1722127;81;26518;-78
2021/08/13 05:07:17;;;;;;;11.50;7.28;;;;;;;15.19;82.08;101406.63;1669267;81;25856;-78
2021/08/13 05:09:44;;;;;;;11.22;7.65;;;;;;;15.28;82.24;101402.24;1743554;80;27425;-80
2021/08/13 05:12:13;;;;;;;14.53;10.23;;;;;;;15.38;82.46;101408.11;1744060;81;26503;-79
2021/08/13 05:14:40;;;;;;;13.35;9.60;;;;;;;15.53;83.12;101405.83;1721748;81;25959;-83
2021/08/13 05:17:08;;;;;;;13.93;9.93;;;;;;;15.67;83.36;101402.18;1677541;80;26002;-79
2021/08/13 05:19:35;;;;;;;13.70;10.15;;;;;;;15.83;83.20;101402.66;1736993;80;25944;-81
2021/08/13 05:22:02;;;;;;;13.25;10.80;;;;;;;15.98;83.05;101402.51;1722870;81;27555;-80
2021/08/13 05:24:30;;;;;;;13.18;10.13;;;;;;;16.13;83.03;101400.48;1713420;81;25791;-80
2021/08/13 05:26:57;;;;;;;13.62;10.25;;;;;;;16.27;82.94;101403.55;1644454;83;26529;-80
2021/08/13 05:29:25;;;;;;;13.83;9.40;;;;;;;16.42;82.67;101407.43;1714287;82;25817;-80
2021/08/13 05:31:52;;;;;;;11.90;9.33;;;;;;;16.54;82.44;101402.59;1685819;81;25897;-79
2021/08/13 05:34:19;;;;;;;11.63;8.23;;;;;;;16.67;82.14;101402.61;1738990;81;27537;-79
2021/08/13 05:36:46;;;;;;;15.70;9.70;;;;;;;16.80;82.05;101399.91;1668261;81;26007;-79
2021/08/13 05:39:13;;;;;;;8.95;7.90;;;;;;;16.94;81.70;101399.37;1738667;80;25387;-80
2021/08/13 05:41:41;;;;;;;11.85;8.18;;;;;;;17.07;81.72;101395.82;1745515;81;25826;-77
2021/08/13 05:44:08;;;;;;;11.40;8.40;;;;;;;17.20;81.35;101394.45;1733480;81;25869;-78
2021/08/13 05:46:37;;;;;;;11.78;8.40;;;;;;;17.31;81.02;101396.52;1681658;81;27428;-76
2021/08/13 05:49:04;;;;;;;15.10;8.20;;;;;;;17.44;80.74;101394.62;1748394;80;25742;-77
2021/08/13 05:51:31;;;;;;;12.88;9.08;;;;;;;17.55;80.46;101398.08;1736448;81;25804;-77
2021/08/13 05:53:58;;;;;;;10.23;8.53;;;;;;;17.70;80.35;101405.95;1731878;81;26549;-77
2021/08/13 05:56:25;;;;;;;10.35;8.25;;;;;;;17.83;80.09;101401.84;1651580;81;25834;-77
2021/08/13 05:58:53;;;;;;;10.45;8.40;;;;;;;17.95;79.72;101406.88;1741695;81;27646;-77
2021/08/13 06:01:20;;;;;;;12.07;8.00;;;;;;;18.07;79.73;101409.21;1730759;81;25762;-79
2021/08/13 06:03:47;;;;;;;10.88;7.25;;;;;;;18.21;79.05;101404.05;1710364;81;25882;-78
2021/08/13 06:06:14;;;;;;;9.33;7.50;;;;;;;18.36;78.85;101405.94;1658357;81;25820;-79
2021/08/13 06:08:42;;;;;;;7.70;6.67;;;;;;;18.50;78.64;101405.34;1713033;81;25961;-81
2021/08/13 06:11:10;;;;;;;6.87;5.92;;;;;;;18.64;78.43;101404.74;1739753;81;28744;-79
2021/08/13 06:13:37;;;;;;;10.25;7.17;;;;;;;18.78;78.08;101403.58;1702962;81;25879;-78
2021/08/13 06:16:05;;;;;;;11.43;6.83;;;;;;;18.91;77.60;101399.40;1689133;81;26601;-78
2021/08/13 06:18:33;;;;;;;9.10;6.70;;;;;;;19.05;77.11;101402.33;1727309;81;25868;-79
2021/08/13 06:21:00;;;;;;;8.70;6.87;;;;;;;19.16;76.05;101400.24;1733651;81;25637;-82
2021/08/13 06:23:29;;;;;;;8.88;6.53;;;;;;;19.30;75.43;101404.48;1683091;81;27632;-80
2021/08/13 06:25:57;;;;;;;8.58;6.35;;;;;;;19.42;75.49;101390.47;1653461;81;25962;-79
2021/08/13 06:28:24;;;;;;;9.60;5.85;;;;;;;19.56;75.17;101398.80;1736578;81;25769;-77
2021/08/13 06:30:51;;;;;;;9.10;6.70;;;;;;;19.70;74.84;101400.83;1712862;81;25874;-77
2021/08/13 06:33:19;;;;;;;6.78;5.95;;;;;;;19.80;74.12;101393.80;1693745;81;25374;-79
2021/08/13 06:35:46;;;;;;;7.15;5.67;;;;;;;19.93;74.61;101399.63;1660744;81;27892;-80
2021/08/13 06:38:13;;;;;;;7.67;6.53;;;;;;;20.06;74.39;101396.70;1734632;81;26628;-80
2021/08/13 06:40:41;;;;;;;7.17;5.33;;;;;;;20.19;74.32;101399.80;1742602;81;25796;-79
2021/08/13 06:43:08;;;;;;;10.70;6.17;;;;;;;20.33;73.69;101402.13;1717210;81;26408;-78
2021/08/13 06:45:35;;;;;;;8.55;6.37;;;;;;;20.46;73.71;101402.47;1666315;81;25790;-79
2021/08/13 06:48:07;;;;;;;8.40;5.62;;;;;;;20.57;73.20;101396.23;1690766;83;27580;-80
2021/08/13 06:50:35;;;;;;;8.35;6.37;;;;;;;20.68;72.87;101400.85;1740834;81;25905;-80
2021/08/13 06:53:03;;;;;;;7.03;5.58;;;;;;;20.78;72.76;101399.77;1680706;81;26153;-78
2021/08/13 06:55:30;;;;;;;10.72;6.85;;;;;;;20.88;72.28;101399.17;1674455;81;26413;-77
2021/08/13 06:58:00;;;;;;;11.08;6.30;;;;;;;20.94;71.91;101403.67;1738867;81;26503;-81
2021/08/13 07:00:28;;;;;;;7.87;5.97;;;;;;;21.02;71.91;101412.33;1742543;81;27519;-79
2021/08/13 07:02:55;;;;;;;10.40;6.08;;;;;;;21.11;70.35;101404.67;1691814;81;25844;-80
2021/08/13 07:05:23;;;;;;;7.08;5.70;;;;;;;21.21;70.04;101407.66;1708862;81;26650;-81
2021/08/13 07:07:50;;;;;;;9.85;5.97;;;;;;;21.32;69.92;101410.36;1738285;81;26016;-79
2021/08/13 07:10:18;;;;;;;6.10;5.50;;;;;;;21.41;69.98;101410.30;1689552;83;25823;-80
2021/08/13 07:12:45;;;;;;;6.62;5.53;;;;;;;21.51;68.91;101415.97;1647116;83;28248;-81
2021/08/13 07:15:13;;;;;;;10.95;6.10;;;;;;;21.58;68.15;101413.13;1655061;83;25848;-80
2021/08/13 07:17:40;;;;;;;8.65;6.55;;;;;;;21.66;68.66;101407.86;1667023;83;26683;-79
2021/08/13 07:20:09;;;;;;;9.25;6.03;;;;;;;21.72;67.75;101413.18;1713981;82;25784;-80
2021/08/13 07:22:37;;;;;;;7.15;6.25;;;;;;;21.76;66.59;101404.80;1709059;82;25883;-78
2021/08/13 07:25:05;;;;;;;8.33;5.45;;;;;;;21.76;66.19;101401.24;1671803;82;28181;-78
2021/08/13 07:27:33;;;;;;;6.65;5.75;;;;;;;21.80;65.66;101407.88;1674186;82;25914;-79
2021/08/13 07:30:00;;;;;;;8.15;5.78;;;;;;;21.84;66.08;101411.27;1680123;83;26100;-78
2021/08/13 07:32:28;;;;;;;7.50;6.00;;;;;;;21.91;66.00;101420.16;1685838;83;25942;-78
2021/08/13 07:34:55;;;;;;;6.62;5.22;;;;;;;21.98;65.87;101414.02;1682824;83;26094;-78
2021/08/13 07:37:24;;;;;;;7.05;5.80;;;;;;;22.03;65.48;101416.85;1705469;83;27626;-78
2021/08/13 07:39:51;;;;;;;6.05;5.30;;;;;;;22.12;65.44;101418.66;1714116;82;26487;-78
2021/08/13 07:42:18;;;;;;;7.83;5.65;;;;;;;22.19;65.58;101419.36;1712625;81;25898;-78
2021/08/13 07:44:46;;;;;;;7.20;5.45;;;;;;;22.29;65.34;101412.72;1734190;81;25910;-78
2021/08/13 07:47:14;;;;;;;7.67;5.53;;;;;;;22.39;64.57;101412.91;1677660;81;25804;-78
2021/08/13 07:49:42;;;;;;;6.75;4.83;;;;;;;22.48;64.35;101419.63;1712302;81;28319;-79
2021/08/13 07:52:10;;;;;;;7.45;6.15;;;;;;;22.58;64.33;101420.37;1688780;81;26653;-78
2021/08/13 07:54:38;;;;;;;5.90;4.87;;;;;;;22.69;63.96;101422.24;1700417;81;25786;-80
2021/08/13 07:57:07;;;;;;;6.72;5.50;;;;;;;22.80;63.84;101419.42;1702561;81;26923;-81
2021/08/13 07:59:36;;;;;;;8.78;5.45;;;;;;;22.90;63.09;101421.52;1746805;81;25955;-77
2021/08/13 08:02:06;;;;;;;7.50;5.05;;;;;;;22.99;63.12;101429.03;1749455;81;28351;-83
2021/08/13 08:04:33;;;;;;;5.67;4.85;;;;;;;23.11;63.45;101428.12;1684625;82;25999;-81
2021/08/13 08:07:00;;;;;;;6.20;4.92;;;;;;;23.24;62.28;101423.16;1706481;82;26595;-80
2021/08/13 08:09:27;;;;;;;7.03;4.95;;;;;;;23.31;61.35;101414.22;1693572;83;25919;-80
2021/08/13 08:11:54;;;;;;;4.83;4.35;;;;;;;23.40;60.50;101417.39;1690081;82;25823;-78
2021/08/13 08:14:21;;;;;;;7.70;5.25;;;;;;;23.46;60.01;101416.41;1692844;82;27630;-80
2021/08/13 08:16:49;;;;;;;7.08;5.00;;;;;;;23.51;59.50;101418.66;1666596;82;25825;-78
2021/08/13 08:19:15;;;;;;;8.08;4.67;;;;;;;23.61;59.83;101417.42;1708860;82;25899;-79
2021/08/13 08:21:43;;;;;;;9.80;4.80;;;;;;;23.70;59.32;101415.08;1696814;83;25813;-79
2021/08/13 08:24:12;;;;;;;7.03;4.90;;;;;;;23.80;58.80;101421.23;1671375;83;26688;-80
2021/08/13 08:26:41;;;;;;;5.30;4.35;;;;;;;23.86;58.53;101417.48;1667672;83;27460;-79
2021/08/13 08:29:08;;;;;;;5.33;4.60;;;;;;;23.94;58.24;101423.34;1699937;83;25974;-82
2021/08/13 08:31:35;;;;;;;8.05;4.83;;;;;;;24.01;56.85;101426.72;1671801;83;25679;-79
2021/08/13 08:34:02;;;;;;;7.10;4.97;;;;;;;24.07;56.98;101420.25;1669346;83;25767;-84
2021/08/13 08:36:28;;;;;;;6.65;5.20;;;;;;;24.13;57.56;101423.86;1657267;83;25770;-82
2021/08/13 08:38:55;;;;;;;7.05;4.60;;;;;;;24.16;55.86;101420.63;1691975;83;27482;-81
2021/08/13 08:41:24;;;;;;;8.43;4.65;;;;;;;24.19;55.42;101420.92;1671487;83;25352;-79
2021/08/13 08:43:52;;;;;;;5.58;4.12;;;;;;;24.24;55.75;101425.10;1668965;83;25969;-79
2021/08/13 08:46:21;;;;;;;4.80;4.20;;;;;;;24.30;55.05;101420.50;1671507;83;26589;-77
2021/08/13 08:48:52;;;;;;;10.00;4.70;;;;;;;24.36;55.89;101417.55;1695470;82;26580;-79
2021/08/13 08:51:20;;;;;;;6.17;4.12;;;;;;;24.46;55.40;101427.80;1671573;84;27385;-80
2021/08/13 08:53:53;;;;;;;8.23;4.45;;;;;;;24.49;54.09;101425.36;1676095;84;25755;-82
2021/08/13 08:56:24;;;;;;;6.47;4.33;;;;;;;24.55;54.80;101416.64;1659023;83;25951;-81
2021/08/13 08:58:51;;;;;;;7.45;4.20;;;;;;;24.62;54.12;101419.17;1716728;82;25885;-81
2021/08/13 09:01:18;;;;;;;4.65;4.25;;;;;;;24.69;54.36;101412.95;1663572;83;25802;-80
2021/08/13 09:03:46;;;;;;;5.92;3.95;;;;;;;24.74;54.47;101421.23;1660483;83;27455;-79
2021/08/13 09:06:16;;;;;;;8.88;4.15;;;;;;;24.81;54.24;101419.11;1641099;85;25870;-81
2021/08/13 09:08:43;;;;;;;7.72;3.95;;;;;;;24.86;53.88;101417.80;1694788;83;25886;-81
2021/08/13 09:11:11;;;;;;;5.78;3.70;;;;;;;24.90;53.10;101418.38;1665002;83;26132;-79
2021/08/13 09:13:39;;;;;;;3.72;3.30;;;;;;;24.92;53.02;101415.37;1670334;83;25992;-77
2021/08/13 09:16:14;;;;;;;3.75;3.40;;;;;;;24.96;53.52;101422.81;1645623;83;27459;-78
2021/08/13 09:18:45;;;;;;;4.78;3.50;;;;;;;25.01;52.11;101419.29;1694452;80;25816;-77
2021/08/13 09:21:17;;;;;;;4.00;3.22;;;;;;;25.04;52.46;101416.03;1716833;81;26184;-78
2021/08/13 09:23:46;;;;;;;9.28;3.80;;;;;;;25.09;52.03;101416.05;1734170;81;25832;-81
2021/08/13 09:26:23;;;;;;;7.25;4.33;;;;;;;25.12;51.97;101416.91;1716196;81;25917;-79
2021/08/13 09:29:13;;;;;;;3.75;3.35;;;;;;;25.15;51.28;101417.20;1737808;81;27495;-80
2021/08/13 09:31:52;;;;;;;6.08;3.22;;;;;;;25.20;50.79;101419.16;1706285;81;25760;-79
2021/08/13 09:34:34;;;;;;;6.12;3.55;;;;;;;25.26;51.20;101411.24;1716589;81;25851;-79
2021/08/13 09:37:01;;;;;;;8.48;5.12;;;;;;;25.30;50.95;101409.63;1719464;81;25873;-79
2021/08/13 09:39:33;;;;;;;4.65;3.83;;;;;;;25.32;50.66;101412.13;1735920;81;25762;-78
2021/08/13 09:42:01;;;;;;;;;;;;;;;25.34;50.31;101407.19;1706648;82;27360;-80
2021/08/13 09:44:35;;;;;;;5.70;3.35;;;;;;;25.34;49.96;101409.94;1719273;81;25779;-82
2021/08/13 09:47:12;;;;;;;3.72;3.27;;;;;;;25.28;49.72;101408.52;1708488;81;25755;-81
2021/08/13 09:49:42;;;;;;;6.37;4.08;;;;;;;25.26;49.76;101400.27;1727368;81;26551;-79
2021/08/13 09:52:20;;;;;;;4.80;3.58;;;;;;;25.27;49.29;101406.05;1695746;81;25820;-80
2021/08/13 09:54:52;;;;;;;7.85;3.33;;;;;;;25.24;48.58;101405.20;1688659;81;27500;-80
2021/08/13 09:57:19;;;;;;;5.87;3.70;;;;;;;25.22;49.03;101405.47;1701095;81;25881;-79
2021/08/13 10:00:03;;;;;;;5.15;2.95;;;;;;;25.23;48.41;101402.99;1737598;81;25797;-78
2021/08/13 10:02:38;;;;;;;4.35;3.10;;;;;;;25.21;48.73;101406.55;1715495;81;26414;-81
2021/08/13 10:05:25;;;;;;;5.45;3.30;;;;;;;25.23;49.02;101407.11;1711101;81;25818;-80
2021/08/13 10:08:02;;;;;;;3.55;3.02;;;;;;;25.31;49.43;101407.70;1732940;81;27503;-80
2021/08/13 10:10:31;;;;;;;5.58;3.47;;;;;;;25.42;49.76;101405.35;1718019;80;25807;-82
2021/08/13 10:13:02;;;;;;;4.30;2.98;;;;;;;25.51;48.51;101403.77;1693253;81;25875;-79
2021/08/13 10:15:39;;;;;;;5.95;3.33;;;;;;;25.58;48.70;101401.59;1690899;80;25777;-79
2021/08/13 10:18:11;;;;;;;7.15;3.42;;;;;;;25.69;48.88;101400.02;1759451;80;25377;-79
2021/08/13 10:20:45;;;;;;;5.67;3.33;;;;;;;25.80;47.13;101395.39;1723599;80;27528;-79
2021/08/13 10:23:13;;;;;;;4.15;3.00;;;;;;;25.88;48.09;101397.61;1660922;83;25820;-79
2021/08/13 10:25:41;;;;;;;4.15;3.08;;;;;;;25.99;48.48;101397.94;1662494;83;26533;-80
2021/08/13 10:28:08;;;;;;;5.67;3.17;;;;;;;26.11;47.80;101400.48;1709668;81;26010;-80
2021/08/13 10:30:37;;;;;;;3.45;3.05;;;;;;;26.17;47.86;101400.78;1719114;82;25738;-80
2021/08/13 10:33:07;;;;;;;5.12;3.47;;;;;;;26.22;47.22;101402.98;1676240;82;27228;-81
2021/08/13 10:35:54;;;;;;;6.58;3.12;;;;;;;26.27;46.24;101394.76;1653158;84;25839;-81
2021/08/13 10:38:25;;;;;;;5.28;3.45;;;;;;;26.33;46.33;101392.30;1699176;82;25772;-79
2021/08/13 10:40:53;;;;;;;8.23;3.30;;;;;;;26.38;46.45;101387.36;1684691;83;25884;-82
2021/08/13 10:43:25;;;;;;;3.22;2.77;;;;;;;26.42;46.67;101392.59;1681611;82;25896;-77
2021/08/13 10:45:55;;;;;;;4.55;3.25;;;;;;;26.46;45.68;101384.07;1691460;83;27570;-81
2021/08/13 10:48:26;;;;;;;4.25;3.30;;;;;;;26.50;46.71;101383.80;1704950;83;26943;-80
2021/08/13 10:50:58;;;;;;;3.87;3.33;;;;;;;26.50;45.96;101381.05;1688135;83;25865;-80
2021/08/13 10:53:33;;;;;;;4.03;2.77;;;;;;;26.55;45.84;101376.95;1715787;81;27210;-81
2021/08/13 10:56:04;;;;;;;5.25;3.12;;;;;;;26.59;46.18;101377.50;1719019;82;25381;-81
2021/08/13 10:58:43;;;;;;;3.50;2.90;;;;;;;26.61;45.76;101375.84;1717982;82;27505;-80
2021/08/13 11:01:20;;;;;;;3.55;3.22;;;;;;;26.65;45.55;101368.16;1666859;83;25919;-80
2021/08/13 11:03:57;;;;;;;5.50;2.98;;;;;;;26.68;46.04;101371.73;1723782;82;25831;-79
2021/08/13 11:06:43;;;;;;;3.22;2.92;;;;;;;26.70;45.14;101365.95;1706159;83;25939;-80
2021/08/13 11:09:24;;;;;;;4.03;3.50;;;;;;;26.70;45.65;101367.33;1654825;83;25900;-79
2021/08/13 11:11:59;;;;;;;4.75;3.20;;;;;;;26.77;46.33;101361.59;1664211;83;26991;-79
2021/08/13 11:14:32;;;;;;;4.35;3.58;;;;;;;26.85;45.58;101365.16;1721034;83;26527;-80
2021/08/13 11:17:00;;;;;;;5.33;3.17;;;;;;;26.86;45.39;101352.50;1690437;83;25834;-78
2021/08/13 11:19:28;;;;;;;4.83;3.50;;;;;;;26.90;45.52;101348.13;1702202;81;25930;-78
2021/08/13 11:22:02;;;;;;;4.12;3.72;;;;;;;26.95;45.75;101345.34;1684102;82;26071;-78
2021/08/13 11:24:52;;;;;;;6.17;4.12;;;;;;;26.96;44.41;101346.18;1688771;82;27549;-83
2021/08/13 11:27:21;;;;;;;4.12;3.55;;;;;;;26.90;44.52;101344.00;1724098;80;26640;-80
2021/08/13 11:29:48;;;;;;;7.72;4.10;;;;;;;26.92;44.88;101349.22;1696264;81;26649;-77
2021/08/13 11:32:28;;;;;;;5.17;3.47;;;;;;;27.00;44.93;101350.02;1706328;81;25949;-77
2021/08/13 11:35:05;;;;;;;6.78;4.05;;;;;;;26.97;45.28;101341.77;1744910;80;26503;-78